AirNav   Duncan Aviation - Near you to keep you flying
 
 470 users online  

CA66 Monterey Bay Academy Airport
Watsonville, California, USA

GOING TO WATSONVILLE?


FAA INFORMATION EFFECTIVE 03 NOVEMBER 2022

Location

FAA Identifier: CA66
Lat/Long: 36-54-21.8300N 121-50-34.8320W
36-54.363833N 121-50.580533W
36.9060639,-121.8430089
(estimated)
Elevation: 70 ft. / 21 m (estimated)
Variation: 16E (1985)
From city: 4 miles W of WATSONVILLE, CA
Time zone: UTC -8 (UTC -7 during Daylight Saving Time)
Zip code: 95076

Airport Operations

Airport use: Private use. Permission required prior to landing
Control tower: no
ARTCC: OAKLAND CENTER
FSS: OAKLAND FLIGHT SERVICE STATION
Attendance: UNATNDD
Pattern altitude: ENTER TFC PAT FM OCEAN SIDE TO AVOID FLYING OVR MONTEREY BAY ACADEMY BLDGS AND HORSE STABLES.
Wind indicator: yes
Segmented circle: yes

Airport Communications

UNICOM: 122.8
WX ASOS at WVI (3 nm NE): 132.275 (831-724-8794)
WX AWOS-3PT at OAR (14 nm S): 134.025 (831-384-2967)
WX AWOS-3P at E16 (16 nm NE): 118.350 (408-918-7724)
WX ASOS at SNS (19 nm SE): PHONE 831-422-2830
WX ASOS at MRY (19 nm S): PHONE 831-642-0241

Nearby radio navigation aids

VOR radial/distance  VOR name  Freq  Var
SNSr305/18.5SALINAS VORTAC117.3017E
SJCr154/28.5SAN JOSE VOR/DME114.1016E
OSIr127/35.9WOODSIDE VOR/DME113.9017E

Airport Services

Airframe service: NONE
Powerplant service: NONE

Runway Information

Runway 10/28

Dimensions: 2200 x 50 ft. / 671 x 15 m
Surface: turf
RUNWAY 10  RUNWAY 28
Traffic pattern: rightleft
Obstructions: bldgnone

Airport Ownership and Management from official FAA records

Ownership: Privately-owned
Owner: MONTEREY BAY ACADEMY
783 SAN ANDREAS ROAD
LA SELVA BEACH, CA 95076
Phone 831-728-1481
Manager: JEFF DEMING, MONTEREY BAY ACADEMY
783 SAN ANDREAS ROAD
LA SELVA BEACH, CA 95061
Phone (831) 566-7224
ADDNL CONTACT: ANNA LIEBY, AIR SPACE INTEGRATION; 450 MCQUAIDE DR; LA SELVA BEACH, CA 95076; 831-239-7918; LIEBY@AIRSPACEINT.COM

Additional Remarks

USE CAUTION CONCERNING NOAA OVER FLIGHT RESTRICTION AREAS, THROUGHOUT THE MONTEREY BAY NATIONAL MARINE SANCTUARY, PROHIBITING FLIGHTS BELOW 1,000 FT AGL EXCEPT IN PATTERN.
PLEASE REVIEW ADDITIONAL OPERATING RECOMMENDATIONS AT WWW.OCEANSHOREAVIATION.COM
FOR CD CTC NORCAL APCH AT 916-361-3748.
PMSN FOR LDGS IS OFFERED AFTER VISITORS SIGN AND SMT A LIABILITY RLS FORM AVBL ONLINE AT THE MONTEREY BAY ACADEMY WEBSITE.
AIRFIELD OPERATIONS LIMITED TO DAYLIGHT HOURS.
IN OBSERVANCE OF SEVENTH DAY ADVENTIST SABBATH, PLEASE DO NOT LAND ON AIRFIELD FROM SUNSET FRIDAYS TO SUNSET SATURDAYS.
CAUTION REGARDING AGRICULTURAL OPERATIONS AND FOR PEOPLE AND ANIMALS USING DIRT ROADS ADJACENT TO BOTH SIDES OF TURF STRIP. RECOMMEND OVERFLYING AIRFIELD TO OBSERVE OPERATIONS ADJACENT TO RUNWAY BEFORE LANDING.
AVOID OVERFLYING HOUSES LOCATED ABOVE COAST, 3/4 NM SSE OF THE AIRFIELD.
STUDENT SOLO FLIGHTS NOT RECOMMENDED.
OCCASIONAL IRRIGATION ON TURF FROM LATE AFTERNOON TO SUNRISE.

Instrument Procedures

There are no published instrument procedures at CA66.

Some nearby airports with instrument procedures:

KWVI - Watsonville Municipal Airport (3 nm NE)
KOAR - Marina Municipal Airport (14 nm S)
E16 - San Martin Airport (16 nm NE)
KSNS - Salinas Municipal Airport (19 nm SE)
KMRY - Monterey Regional Airport (19 nm S)
 
Loc | Ops | Rwys | IFR | FBO | Links
Com | Nav | Svcs | Stats | Notes
Area around CA66 (Monterey Bay Academy Airport)
 
Road maps at: MapQuest Bing Google
 
Aerial photo
WARNING: Photo may not be current or correct
Aerial photo of CA66 (Monterey Bay Academy Airport)
Photo by Mark Stephens
Photo taken 02-Aug-2018

Do you have a better or more recent aerial photo of Monterey Bay Academy Airport that you would like to share? If so, please send us your photo.

 
Sectional chart

 
Airport distance calculator
Flying to Monterey Bay Academy Airport? Find the distance to fly.

From to CA66

Sunrise and sunset
Times for 28-Nov-2022
 Local
(UTC-8)
 Zulu
(UTC)
Morning civil twilight06:3214:32
Sunrise07:0015:00
Sunset16:5100:51
Evening civil twilight17:1901:19

Current date and time
Zulu (UTC)  28-Nov-2022 10:30:05
Local (UTC-8)  28-Nov-2022 02:30:05
 
METAR
KWVI 
3nm NE 
280953Z AUTO 00000KT 10SM SCT002 02/02 A3000 RMK AO2 SLP157 T00220022
KOAR 
15nm S 
134.025 831-384-2967
281015Z AUTO 00000KT 4SM OVC003 08/08 A3000 RMK AO2 PWINO
KE16 
16nm NE 
281015Z AUTO 00000KT 10SM SCT015 04/02 A3002 RMK AO2 PWINO PNO
KSNS 
19nm SE 
281005Z AUTO 00000KT 1SM R31/5000VP6000FT BR OVC002 08/08 A2999 RMK AO2 T00830083
KMRY 
19nm S 
280954Z AUTO 22004KT 9SM OVC005 09/09 A3000 RMK AO2 SLP171 T00940094
TAF
KSNS 
19nm SE 
280542Z 2806/2906 30004KT P6SM SCT008 BKN200 TEMPO 2806/2808 BKN005 FM280800 14008KT P6SM BKN010 FM281200 22004KT 1SM BR BKN003 FM281800 31018G24KT P6SM BKN040 FM290200 30009KT P6SM SKC
KMRY 
19nm S 
280520Z 2806/2906 15004KT P6SM SCT007 BKN200 FM281100 22007KT 1SM BR BKN003 FM281700 32012G20KT P6SM SCT020 BKN250 FM290100 32006KT P6SM BKN030
NOTAMs
Click for the latest NOTAMs
NOTAMs are issued by the DoD/FAA and will open in a separate window not controlled by AirNav.

 

 
 

Would you like to see your business listed on this page?

 If your business provides an interesting product or service to pilots, flight crews, aircraft, or users of the Monterey Bay Academy Airport, you should consider listing it here.  To start the listing process, click on the button below
 
Add a business
 

Other Pages about Monterey Bay Academy Airport

Update a link
 
Copyright © AirNav, LLC. All rights reserved. Privacy Policy  Contact